Time;durP1;ratioP1;P1;durP2;ratioP2;P2;SDS_P1;SDS_P2;PMS_P1;PMS_P2;Temp;Humidity;BMP_temperature;BMP_pressure;BME280_temperature;BME280_humidity;BME280_pressure;Samples;Min_cycle;Max_cycle;Signal;HPM_P1;HPM_P2
2024/03/19 00:01:56;;;;;;;;;;;;;;;16.40;47.84;100538.31;5076800;28;955;-54
2024/03/19 00:04:22;;;;;;;;;;;;;;;17.37;48.56;100528.81;5074664;28;1039;-55
2024/03/19 00:06:47;;;;;;;;;;;;;;;17.02;49.06;100536.16;5073358;28;1434;-54
2024/03/19 00:09:13;;;;;;;;;;;;;;;16.55;48.41;100534.66;5063527;28;1100;-54
2024/03/19 00:11:38;;;;;;;;;;;;;;;16.24;47.79;100532.00;5076955;28;1023;-54
2024/03/19 00:14:04;;;;;;;;;;;;;;;17.47;48.44;100525.19;5063450;28;1260;-55
2024/03/19 00:16:29;;;;;;;;;;;;;;;16.62;49.16;100526.16;5076377;28;1910;-54
2024/03/19 00:18:55;;;;;;;;;;;;;;;16.34;48.53;100520.19;5065880;28;1054;-54
2024/03/19 00:21:21;;;;;;;;;;;;;;;16.22;47.28;100513.09;5076910;28;1087;-53
2024/03/19 00:23:47;;;;;;;;;;;;;;;16.73;48.27;100516.78;5062308;28;1099;-54
2024/03/19 00:26:13;;;;;;;;;;;;;;;17.52;48.22;100521.59;5049217;28;1139;-54
2024/03/19 00:28:41;;;;;;;;;;;;;;;16.65;48.88;100515.44;5038557;28;2459;-55
2024/03/19 00:31:06;;;;;;;;;;;;;;;16.39;48.07;100523.75;5064468;28;904;-55
2024/03/19 00:33:32;;;;;;;;;;;;;;;16.75;48.71;100523.63;5056305;28;1111;-54
2024/03/19 00:35:58;;;;;;;;;;;;;;;17.18;48.95;100511.34;5056842;28;1910;-53
2024/03/19 00:38:24;;;;;;;;;;;;;;;16.65;48.77;100507.22;5056417;28;1113;-54
2024/03/19 00:40:51;;;;;;;;;;;;;;;16.40;47.80;100506.19;5063882;28;1098;-51
2024/03/19 00:43:16;;;;;;;;;;;;;;;17.56;48.16;100500.69;5063790;28;1076;-54
2024/03/19 00:45:42;;;;;;;;;;;;;;;16.71;48.67;100503.31;5064094;28;1092;-52
2024/03/19 00:48:08;;;;;;;;;;;;;;;16.44;48.04;100492.72;5074632;28;1131;-53
2024/03/19 00:50:34;;;;;;;;;;;;;;;16.30;47.28;100494.41;5043919;28;1041;-53
2024/03/19 00:52:59;;;;;;;;;;;;;;;16.14;47.01;100488.16;5069767;28;1020;-52
2024/03/19 00:55:25;;;;;;;;;;;;;;;15.98;46.58;100490.91;5063148;28;1910;-50
2024/03/19 00:57:51;;;;;;;;;;;;;;;15.85;46.47;100491.47;5048133;28;2589;-51
2024/03/19 01:00:18;;;;;;;;;;;;;;;17.08;48.22;100488.34;5063795;28;861;-50
2024/03/19 01:02:44;;;;;;;;;;;;;;;16.25;48.94;100490.56;5075526;28;1008;-51
2024/03/19 01:05:10;;;;;;;;;;;;;;;16.06;47.96;100487.63;5056378;28;1059;-51
2024/03/19 01:07:41;;;;;;;;;;;;;;;16.15;47.86;100495.28;5068961;28;1036;-49
2024/03/19 01:10:07;;;;;;;;;;;;;;;17.15;48.18;100484.47;5067661;28;1217;-53
2024/03/19 01:12:33;;;;;;;;;;;;;;;16.33;48.89;100486.44;5071610;28;1108;-49
2024/03/19 01:14:58;;;;;;;;;;;;;;;16.12;48.05;100482.09;5075515;28;1000;-51
2024/03/19 01:17:24;;;;;;;;;;;;;;;16.01;47.35;100481.31;5061886;28;1902;-48
2024/03/19 01:19:50;;;;;;;;;;;;;;;17.13;48.14;100475.69;5069263;28;946;-49
2024/03/19 01:22:15;;;;;;;;;;;;;;;17.81;47.91;100474.03;5061860;28;1198;-51
2024/03/19 01:24:41;;;;;;;;;;;;;;;16.71;49.12;100473.13;5075788;28;1027;-51
2024/03/19 01:27:07;;;;;;;;;;;;;;;16.38;48.42;100466.41;5073932;28;2485;-51
2024/03/19 01:29:32;;;;;;;;;;;;;;;16.20;47.64;100460.44;5064027;28;898;-49
2024/03/19 01:31:58;;;;;;;;;;;;;;;16.11;47.15;100466.75;5075464;28;917;-52
2024/03/19 01:34:24;;;;;;;;;;;;;;;17.44;48.44;100463.34;5075689;28;1153;-53
2024/03/19 01:36:50;;;;;;;;;;;;;;;16.48;49.43;100458.16;5074654;28;1905;-51
2024/03/19 01:39:16;;;;;;;;;;;;;;;16.24;48.65;100447.81;5075460;28;1085;-54
2024/03/19 01:41:42;;;;;;;;;;;;;;;16.29;48.39;100437.91;5062516;28;1161;-54
2024/03/19 01:44:10;;;;;;;;;;;;;;;17.76;48.05;100450.97;5059941;28;837;-53
2024/03/19 01:46:36;;;;;;;;;;;;;;;16.56;49.25;100453.97;5050879;28;1037;-50
2024/03/19 01:49:02;;;;;;;;;;;;;;;16.27;48.61;100448.31;5056156;28;1008;-52
2024/03/19 01:51:28;;;;;;;;;;;;;;;16.25;47.60;100446.69;5056221;28;1090;-53
2024/03/19 01:53:54;;;;;;;;;;;;;;;16.13;47.56;100448.09;5075739;28;1004;-53
2024/03/19 01:56:20;;;;;;;;;;;;;;;17.67;48.29;100441.75;5072993;28;1988;-53
2024/03/19 01:58:47;;;;;;;;;;;;;;;16.87;49.12;100440.09;5061359;28;2826;-50
2024/03/19 02:01:13;;;;;;;;;;;;;;;16.46;48.65;100437.56;5075126;28;1000;-55
2024/03/19 02:03:39;;;;;;;;;;;;;;;16.74;49.04;100436.06;5075905;28;1075;-54
2024/03/19 02:06:05;;;;;;;;;;;;;;;17.25;48.86;100432.16;5062737;28;1175;-55
2024/03/19 02:08:30;;;;;;;;;;;;;;;16.61;48.78;100445.72;5049782;28;866;-54
2024/03/19 02:10:56;;;;;;;;;;;;;;;16.45;48.80;100441.41;5065194;28;1135;-52
2024/03/19 02:13:21;;;;;;;;;;;;;;;17.72;48.17;100441.66;5067479;28;1127;-55
2024/03/19 02:15:50;;;;;;;;;;;;;;;16.80;49.01;100443.16;5054754;28;1906;-52
2024/03/19 02:18:15;;;;;;;;;;;;;;;16.51;48.28;100445.75;5055319;28;1029;-49
2024/03/19 02:20:41;;;;;;;;;;;;;;;16.30;47.38;100445.03;5073076;28;869;-51
2024/03/19 02:23:06;;;;;;;;;;;;;;;16.15;46.99;100434.94;5075467;28;1107;-51
2024/03/19 02:25:32;;;;;;;;;;;;;;;17.24;48.41;100439.59;5075157;28;1040;-51
2024/03/19 02:27:58;;;;;;;;;;;;;;;16.48;48.92;100441.69;5074976;28;2703;-50
2024/03/19 02:30:23;;;;;;;;;;;;;;;16.21;48.12;100431.06;5061637;28;1150;-51
2024/03/19 02:32:49;;;;;;;;;;;;;;;16.16;47.35;100431.06;5064750;28;1028;-51
2024/03/19 02:35:15;;;;;;;;;;;;;;;16.86;48.22;100433.78;5076020;28;1897;-50
2024/03/19 02:37:41;;;;;;;;;;;;;;;16.46;48.63;100443.88;5077845;28;1157;-52
2024/03/19 02:40:06;;;;;;;;;;;;;;;16.19;48.09;100444.25;5063659;28;1039;-49
2024/03/19 02:42:35;;;;;;;;;;;;;;;16.04;47.20;100440.44;5066989;28;1067;-51
2024/03/19 02:45:01;;;;;;;;;;;;;;;17.58;47.61;100443.47;5058856;28;884;-52
2024/03/19 02:47:26;;;;;;;;;;;;;;;16.95;48.79;100441.47;5058665;28;1079;-50
2024/03/19 02:49:52;;;;;;;;;;;;;;;16.47;48.37;100437.28;5059584;28;1051;-51
2024/03/19 02:52:17;;;;;;;;;;;;;;;16.20;47.88;100432.16;5078409;28;1042;-49
2024/03/19 02:54:43;;;;;;;;;;;;;;;17.01;48.50;100438.41;5064997;28;1174;-51
2024/03/19 02:57:08;;;;;;;;;;;;;;;17.43;48.36;100453.47;5075584;28;1972;-49
2024/03/19 02:59:34;;;;;;;;;;;;;;;16.69;49.24;100447.88;5068276;28;2117;-50
2024/03/19 03:02:00;;;;;;;;;;;;;;;18.19;47.84;100452.22;5078939;28;1106;-51
2024/03/19 03:04:25;;;;;;;;;;;;;;;17.30;49.33;100451.38;5076054;28;1043;-50
2024/03/19 03:06:51;;;;;;;;;;;;;;;16.83;48.86;100441.75;5066619;28;1070;-47
2024/03/19 03:09:17;;;;;;;;;;;;;;;16.62;47.88;100439.16;5073650;28;1008;-52
2024/03/19 03:11:43;;;;;;;;;;;;;;;16.54;47.02;100436.97;5078551;28;1023;-53
2024/03/19 03:14:08;;;;;;;;;;;;;;;16.31;46.96;100436.50;5077378;28;1186;-53
2024/03/19 03:16:34;;;;;;;;;;;;;;;16.27;46.43;100440.09;5060310;28;1981;-52
2024/03/19 03:19:00;;;;;;;;;;;;;;;16.16;46.02;100442.88;5074929;28;1086;-52
2024/03/19 03:21:26;;;;;;;;;;;;;;;16.63;47.08;100443.50;5058320;28;1163;-51
2024/03/19 03:23:52;;;;;;;;;;;;;;;17.85;48.39;100442.09;5042140;28;1079;-50
2024/03/19 03:26:18;;;;;;;;;;;;;;;16.79;49.18;100440.69;5060634;28;1047;-51
2024/03/19 03:28:44;;;;;;;;;;;;;;;16.41;48.48;100441.97;5077495;28;1170;-51
2024/03/19 03:31:09;;;;;;;;;;;;;;;16.30;47.54;100431.28;5076742;28;1070;-52
2024/03/19 03:33:35;;;;;;;;;;;;;;;16.10;46.99;100433.00;5071246;28;1051;-52
2024/03/19 03:36:01;;;;;;;;;;;;;;;16.58;48.05;100438.06;5066312;28;1917;-52
2024/03/19 03:38:26;;;;;;;;;;;;;;;17.01;49.03;100424.69;5075429;28;1169;-51
2024/03/19 03:40:55;;;;;;;;;;;;;;;16.47;48.60;100436.47;5048236;28;1250;-51
2024/03/19 03:43:21;;;;;;;;;;;;;;;17.82;48.39;100437.19;5077191;28;1090;-52
2024/03/19 03:45:46;;;;;;;;;;;;;;;16.87;49.51;100434.59;5077144;28;1070;-53
2024/03/19 03:48:12;;;;;;;;;;;;;;;16.56;48.45;100440.25;5077332;28;1126;-53
2024/03/19 03:50:37;;;;;;;;;;;;;;;17.11;49.07;100432.03;5077652;28;1043;-53
2024/03/19 03:53:03;;;;;;;;;;;;;;;17.14;49.06;100423.19;5064197;28;1561;-51
2024/03/19 03:55:29;;;;;;;;;;;;;;;16.69;48.78;100423.19;5075122;28;1897;-53
2024/03/19 03:57:54;;;;;;;;;;;;;;;16.53;47.73;100429.84;5058498;28;1115;-52
2024/03/19 04:00:20;;;;;;;;;;;;;;;16.37;47.09;100420.88;5069477;28;1163;-52
2024/03/19 04:02:46;;;;;;;;;;;;;;;16.22;46.38;100413.50;5056917;28;1036;-51
2024/03/19 04:05:11;;;;;;;;;;;;;;;17.30;48.21;100420.34;5064984;28;1071;-53
2024/03/19 04:07:40;;;;;;;;;;;;;;;17.21;49.03;100409.16;5057723;28;1087;-53
2024/03/19 04:10:06;;;;;;;;;;;;;;;16.52;49.00;100408.97;5056917;28;1051;-51
2024/03/19 04:12:32;;;;;;;;;;;;;;;16.26;48.08;100409.09;5056954;28;1040;-51
2024/03/19 04:14:57;;;;;;;;;;;;;;;16.25;47.17;100415.69;5057080;28;1100;-50
2024/03/19 04:17:23;;;;;;;;;;;;;;;16.14;46.68;100422.31;5069562;28;1918;-53
2024/03/19 04:19:49;;;;;;;;;;;;;;;17.15;48.02;100424.00;5059606;28;1092;-53
2024/03/19 04:22:14;;;;;;;;;;;;;;;17.31;48.61;100433.78;5076659;28;1110;-54
2024/03/19 04:24:40;;;;;;;;;;;;;;;16.59;49.06;100439.69;5076690;28;1086;-52
2024/03/19 04:27:05;;;;;;;;;;;;;;;16.39;47.94;100441.41;5075861;28;1125;-52
2024/03/19 04:29:31;;;;;;;;;;;;;;;16.06;47.74;100443.72;5076220;28;1098;-53
2024/03/19 04:31:56;;;;;;;;;;;;;;;16.00;47.09;100447.56;5072459;28;1007;-54
2024/03/19 04:34:22;;;;;;;;;;;;;;;15.93;46.61;100447.03;5064856;28;1070;-53
2024/03/19 04:36:47;;;;;;;;;;;;;;;17.14;48.17;100445.19;5075850;28;1909;-50
2024/03/19 04:39:14;;;;;;;;;;;;;;;17.01;49.23;100440.31;5076265;28;1135;-54
2024/03/19 04:41:39;;;;;;;;;;;;;;;16.47;48.93;100452.94;5044469;28;1154;-54
2024/03/19 04:44:08;;;;;;;;;;;;;;;16.25;48.11;100445.88;5072712;28;1071;-53
2024/03/19 04:46:34;;;;;;;;;;;;;;;17.23;48.80;100454.44;5070515;28;1360;-54
2024/03/19 04:48:59;;;;;;;;;;;;;;;17.02;49.07;100459.25;5061512;28;1135;-52
2024/03/19 04:51:28;;;;;;;;;;;;;;;16.47;49.07;100458.44;5064640;28;1087;-55
2024/03/19 04:53:53;;;;;;;;;;;;;;;16.30;48.04;100454.09;5025040;28;1490;-48
2024/03/19 04:56:19;;;;;;;;;;;;;;;16.25;46.89;100454.09;5059431;28;1887;-50
2024/03/19 04:58:45;;;;;;;;;;;;;;;16.88;48.55;100458.22;5052020;28;990;-51
2024/03/19 05:01:13;;;;;;;;;;;;;;;16.77;49.22;100458.28;5075539;28;1090;-55
2024/03/19 05:03:39;;;;;;;;;;;;;;;16.38;48.54;100464.50;5076225;28;1062;-53
2024/03/19 05:06:04;;;;;;;;;;;;;;;16.23;47.44;100459.06;5073539;28;1035;-51
2024/03/19 05:08:33;;;;;;;;;;;;;;;16.90;48.61;100456.03;5064805;28;1143;-48
2024/03/19 05:10:59;;;;;;;;;;;;;;;16.54;49.34;100458.94;5061275;28;1167;-57
2024/03/19 05:13:25;;;;;;;;;;;;;;;16.30;50.67;100461.47;5066929;28;1118;-57
2024/03/19 05:15:50;;;;;;;;;;;;;;;16.19;50.46;100457.97;5058071;28;1906;-57
2024/03/19 05:18:17;;;;;;;;;;;;;;;16.06;50.64;100465.66;5066347;28;1501;-58
2024/03/19 05:20:42;;;;;;;;;;;;;;;15.90;51.27;100462.13;5055246;28;1139;-58
2024/03/19 05:23:08;;;;;;;;;;;;;;;15.83;51.18;100460.78;5075882;28;1059;-62
2024/03/19 05:25:34;;;;;;;;;;;;;;;15.63;51.71;100465.16;5075460;28;1282;-56
2024/03/19 05:27:59;;;;;;;;;;;;;;;15.70;51.54;100473.91;5055652;28;936;-58
2024/03/19 05:30:29;;;;;;;;;;;;;;;15.49;51.75;100469.53;5055346;28;1076;-56
2024/03/19 05:32:54;;;;;;;;;;;;;;;15.48;52.28;100470.63;5040263;28;1052;-57
2024/03/19 05:35:20;;;;;;;;;;;;;;;17.10;48.06;100474.34;5063668;28;1910;-56
2024/03/19 05:37:45;;;;;;;;;;;;;;;17.27;47.64;100472.00;5039150;28;1231;-56
2024/03/19 05:40:12;;;;;;;;;;;;;;;16.38;49.72;100478.22;5045555;28;1270;-57
2024/03/19 05:42:38;;;;;;;;;;;;;;;16.12;50.48;100473.88;5050557;28;1392;-56
2024/03/19 05:45:04;;;;;;;;;;;;;;;15.86;51.07;100482.16;5067567;28;848;-53
2024/03/19 05:47:34;;;;;;;;;;;;;;;15.68;51.71;100481.59;5049226;28;1119;-53
2024/03/19 05:50:00;;;;;;;;;;;;;;;15.66;51.67;100485.69;5073250;28;1139;-52
2024/03/19 05:52:26;;;;;;;;;;;;;;;16.15;50.62;100484.31;5064615;28;1234;-57
2024/03/19 05:54:51;;;;;;;;;;;;;;;17.52;47.21;100491.34;5060690;28;1087;-57
2024/03/19 05:57:17;;;;;;;;;;;;;;;17.27;47.57;100493.19;5065974;28;1914;-54
2024/03/19 05:59:43;;;;;;;;;;;;;;;16.46;49.79;100497.94;5037243;28;1098;-57
2024/03/19 06:02:08;;;;;;;;;;;;;;;16.16;50.28;100497.75;5036275;28;1320;-55
2024/03/19 06:04:34;;;;;;;;;;;;;;;15.87;51.09;100494.78;5072496;28;1069;-52
2024/03/19 06:07:00;;;;;;;;;;;;;;;15.76;51.48;100501.31;5073894;28;1106;-57
2024/03/19 06:09:26;;;;;;;;;;;;;;;15.62;51.71;100504.59;5058462;28;1013;-56
2024/03/19 06:11:52;;;;;;;;;;;;;;;15.81;51.41;100498.59;5059610;28;1183;-57
2024/03/19 06:14:17;;;;;;;;;;;;;;;17.35;47.58;100500.81;5052624;28;1152;-53
2024/03/19 06:16:43;;;;;;;;;;;;;;;17.76;46.49;100503.25;5072203;28;1898;-54
2024/03/19 06:19:08;;;;;;;;;;;;;;;16.73;48.79;100498.38;5048687;28;1118;-55
2024/03/19 06:21:34;;;;;;;;;;;;;;;16.24;50.31;100490.84;5050446;28;1367;-57
2024/03/19 06:23:59;;;;;;;;;;;;;;;15.92;51.05;100502.97;5061582;28;1012;-57
2024/03/19 06:26:25;;;;;;;;;;;;;;;15.72;51.65;100493.66;5052340;28;1163;-57
2024/03/19 06:28:51;;;;;;;;;;;;;;;15.62;51.68;100503.78;5041491;28;1115;-57
2024/03/19 06:31:16;;;;;;;;;;;;;;;15.47;52.05;100504.59;5061183;28;1199;-59
2024/03/19 06:33:42;;;;;;;;;;;;;;;15.84;51.71;100512.59;5051939;28;1193;-60
2024/03/19 06:36:07;;;;;;;;;;;;;;;17.33;47.82;100510.44;5046820;28;1973;-59
2024/03/19 06:38:33;;;;;;;;;;;;;;;17.46;47.31;100512.56;5041463;28;1115;-63
2024/03/19 06:40:59;;;;;;;;;;;;;;;16.51;49.64;100509.72;5042393;28;1278;-64
2024/03/19 06:43:25;;;;;;;;;;;;;;;16.10;50.63;100507.06;5042032;28;1132;-60
2024/03/19 06:45:51;;;;;;;;;;;;;;;15.85;51.23;100510.66;5048487;28;1143;-57
2024/03/19 06:48:16;;;;;;;;;;;;;;;15.70;51.52;100516.97;5047398;28;1175;-57
2024/03/19 06:50:42;;;;;;;;;;;;;;;15.55;51.72;100510.34;5056737;28;1237;-58
2024/03/19 06:53:07;;;;;;;;;;;;;;;16.57;49.46;100503.09;5054854;28;1078;-57
2024/03/19 06:55:33;;;;;;;;;;;;;;;17.73;46.59;100514.81;5047550;28;1973;-63
2024/03/19 06:57:59;;;;;;;;;;;;;;;16.84;48.63;100512.06;5057080;28;1242;-60
2024/03/19 07:00:26;;;;;;;;;;;;;;;16.23;50.44;100522.16;5049461;28;1060;-60
2024/03/19 07:02:51;;;;;;;;;;;;;;;15.92;51.08;100519.41;5039676;28;1148;-58
2024/03/19 07:05:18;;;;;;;;;;;;;;;15.82;51.26;100523.03;5053875;28;1320;-60
2024/03/19 07:07:44;;;;;;;;;;;;;;;15.59;51.72;100529.81;5060664;28;1412;-63
2024/03/19 07:10:10;;;;;;;;;;;;;;;16.39;50.01;100529.22;5065071;28;1115;-63
2024/03/19 07:12:37;;;;;;;;;;;;;;;17.67;47.07;100535.22;5045036;28;1171;-59
2024/03/19 07:15:09;;;;;;;;;;;;;;;16.88;48.49;100537.84;5040203;28;1123;-58
2024/03/19 07:17:36;;;;;;;;;;;;;;;16.19;50.53;100529.28;5045219;28;1978;-61
2024/03/19 07:20:02;;;;;;;;;;;;;;;15.93;51.29;100533.97;5052015;28;1195;-61
2024/03/19 07:22:28;;;;;;;;;;;;;;;15.74;51.56;100537.25;5048154;28;1532;-60
2024/03/19 07:24:53;;;;;;;;;;;;;;;15.70;51.52;100545.19;5040421;28;1482;-61
2024/03/19 07:27:19;;;;;;;;;;;;;;;17.01;48.60;100539.19;5043342;28;1270;-60
2024/03/19 07:29:45;;;;;;;;;;;;;;;17.87;46.28;100547.19;5040272;28;1429;-65
2024/03/19 07:32:11;;;;;;;;;;;;;;;16.68;48.92;100534.09;5052452;28;1208;-58
2024/03/19 07:34:37;;;;;;;;;;;;;;;16.24;50.21;100540.22;5044222;28;1392;-62
2024/03/19 07:37:03;;;;;;;;;;;;;;;16.04;50.71;100541.09;5043560;28;1992;-59
2024/03/19 07:39:29;;;;;;;;;;;;;;;15.80;51.29;100549.06;5054210;28;1349;-62
2024/03/19 07:41:55;;;;;;;;;;;;;;;15.62;51.87;100553.94;5057282;28;1020;-56
2024/03/19 07:44:20;;;;;;;;;;;;;;;16.52;50.02;100548.97;5057659;28;1088;-62
2024/03/19 07:46:46;;;;;;;;;;;;;;;17.73;46.86;100547.81;5051879;28;1091;-59
2024/03/19 07:49:11;;;;;;;;;;;;;;;16.83;48.79;100544.22;5045115;28;1108;-55
2024/03/19 07:51:37;;;;;;;;;;;;;;;16.29;50.28;100551.22;5049937;28;1328;-56
2024/03/19 07:54:03;;;;;;;;;;;;;;;16.03;50.79;100548.50;5054418;28;1111;-60
2024/03/19 07:56:30;;;;;;;;;;;;;;;15.81;51.42;100558.91;5043702;28;1913;-60
2024/03/19 07:58:56;;;;;;;;;;;;;;;15.66;51.79;100556.97;5042954;28;1369;-62
2024/03/19 08:01:22;;;;;;;;;;;;;;;16.50;50.06;100562.16;5042465;28;1409;-58
2024/03/19 08:03:47;;;;;;;;;;;;;;;17.72;46.80;100557.16;5052133;28;1089;-57
2024/03/19 08:06:13;;;;;;;;;;;;;;;16.88;48.47;100551.59;5052539;28;1092;-56
2024/03/19 08:08:38;;;;;;;;;;;;;;;16.33;50.10;100552.31;5037296;28;1285;-60
2024/03/19 08:11:05;;;;;;;;;;;;;;;15.99;51.00;100552.91;5039513;28;1060;-57
2024/03/19 08:13:30;;;;;;;;;;;;;;;15.80;51.53;100555.34;5038197;28;1306;-56
2024/03/19 08:15:56;;;;;;;;;;;;;;;15.59;52.05;100554.50;5041470;28;1910;-57
2024/03/19 08:18:22;;;;;;;;;;;;;;;15.83;51.71;100554.00;5037087;28;1211;-58
2024/03/19 08:20:48;;;;;;;;;;;;;;;17.39;47.59;100551.38;5041715;28;1143;-57
2024/03/19 08:23:15;;;;;;;;;;;;;;;17.21;47.76;100550.09;5041304;28;1211;-60
2024/03/19 08:25:41;;;;;;;;;;;;;;;16.43;49.98;100546.78;5044174;28;1064;-61
2024/03/19 08:28:07;;;;;;;;;;;;;;;16.04;50.83;100555.63;5037750;28;1353;-59
2024/03/19 08:30:33;;;;;;;;;;;;;;;15.83;51.50;100549.31;5063557;28;1079;-63
2024/03/19 08:32:59;;;;;;;;;;;;;;;15.67;51.80;100553.09;5042955;28;1135;-62
2024/03/19 08:35:24;;;;;;;;;;;;;;;15.56;51.93;100555.03;5042395;28;1918;-60
2024/03/19 08:37:50;;;;;;;;;;;;;;;17.06;48.48;100553.72;5037715;28;1107;-60
2024/03/19 08:40:16;;;;;;;;;;;;;;;17.84;46.58;100551.31;5038207;28;1290;-60
2024/03/19 08:42:41;;;;;;;;;;;;;;;16.73;49.24;100549.72;5036173;28;1390;-59
2024/03/19 08:45:10;;;;;;;;;;;;;;;16.22;50.33;100550.69;5040657;28;1341;-58
2024/03/19 08:47:39;;;;;;;;;;;;;;;15.98;51.20;100555.91;5040206;28;1527;-62
2024/03/19 08:50:06;;;;;;;;;;;;;;;15.81;51.53;100550.69;5041096;28;1221;-63
2024/03/19 08:52:34;;;;;;;;;;;;;;;15.62;52.02;100556.69;5038921;28;1143;-64
2024/03/19 08:55:02;;;;;;;;;;;;;;;16.00;51.29;100556.44;5037841;28;1306;-64
2024/03/19 08:57:28;;;;;;;;;;;;;;;17.50;47.45;100562.28;5041273;28;1993;-60
2024/03/19 08:59:54;;;;;;;;;;;;;;;17.00;48.54;100554.88;5047283;28;1087;-61
2024/03/19 09:02:20;;;;;;;;;;;;;;;16.35;50.08;100549.28;5043228;28;1317;-65
2024/03/19 09:04:46;;;;;;;;;;;;;;;16.05;51.00;100546.31;5064261;28;1106;-67
2024/03/19 09:07:11;;;;;;;;;;;;;;;15.88;51.46;100548.53;5042097;28;1223;-64
2024/03/19 09:09:37;;;;;;;;;;;;;;;15.70;51.68;100539.69;5043927;28;1016;-64
2024/03/19 09:12:03;;;;;;;;;;;;;;;15.53;52.36;100548.19;5044731;28;1093;-63
2024/03/19 09:14:29;;;;;;;;;;;;;;;16.54;49.82;100546.78;5039403;28;1508;-66
2024/03/19 09:16:54;;;;;;;;;;;;;;;17.73;47.08;100544.25;5042052;28;1975;-65
2024/03/19 09:19:20;;;;;;;;;;;;;;;16.92;48.63;100541.72;5049921;28;1124;-65
2024/03/19 09:21:46;;;;;;;;;;;;;;;16.30;50.19;100541.88;5055779;28;1051;-65
2024/03/19 09:24:11;;;;;;;;;;;;;;;16.12;51.00;100542.44;5067361;28;1170;-62
2024/03/19 09:26:37;;;;;;;;;;;;;;;15.83;51.53;100549.31;5044515;28;1187;-63
2024/03/19 09:29:02;;;;;;;;;;;;;;;15.70;51.76;100544.38;5073442;28;1106;-64
2024/03/19 09:31:28;;;;;;;;;;;;;;;15.55;52.05;100548.72;5075636;28;1050;-65
2024/03/19 09:33:53;;;;;;;;;;;;;;;16.66;49.63;100550.03;5069469;28;1086;-63
2024/03/19 09:36:19;;;;;;;;;;;;;;;17.77;46.86;100535.13;5048025;28;1902;-64
2024/03/19 09:38:48;;;;;;;;;;;;;;;16.82;49.15;100542.56;5045770;28;1079;-64
2024/03/19 09:41:14;;;;;;;;;;;;;;;16.23;50.71;100541.34;5064489;28;1297;-64
2024/03/19 09:43:40;;;;;;;;;;;;;;;15.96;51.26;100531.47;5042338;28;1091;-65
2024/03/19 09:46:06;;;;;;;;;;;;;;;15.81;51.59;100535.06;5042175;28;1103;-64
2024/03/19 09:48:31;;;;;;;;;;;;;;;15.68;51.97;100539.16;5058376;28;1064;-63
2024/03/19 09:51:00;;;;;;;;;;;;;;;15.63;52.11;100541.88;5053155;28;1060;-64
2024/03/19 09:53:26;;;;;;;;;;;;;;;16.98;49.04;100539.78;5052081;28;1185;-63
2024/03/19 09:55:52;;;;;;;;;;;;;;;17.74;46.79;100541.22;5035376;28;1985;-63
2024/03/19 09:58:19;;;;;;;;;;;;;;;16.64;49.34;100530.25;5052126;28;1182;-64
2024/03/19 10:00:47;;;;;;;;;;;;;;;16.23;50.69;100531.19;5036096;28;1048;-64
2024/03/19 10:03:13;;;;;;;;;;;;;;;15.99;51.22;100539.19;5050592;28;1254;-64
2024/03/19 10:05:39;;;;;;;;;;;;;;;15.82;51.74;100535.88;5057564;28;1400;-64
2024/03/19 10:08:05;;;;;;;;;;;;;;;15.67;51.87;100537.50;5057596;28;1072;-64
2024/03/19 10:10:30;;;;;;;;;;;;;;;15.87;51.67;100539.44;5042658;28;1125;-61
2024/03/19 10:12:56;;;;;;;;;;;;;;;17.36;47.93;100538.19;5054918;28;882;-64
2024/03/19 10:15:23;;;;;;;;;;;;;;;17.26;48.02;100530.84;5055741;28;1088;-65
2024/03/19 10:17:49;;;;;;;;;;;;;;;16.49;50.15;100541.28;5032275;28;1212;-60
2024/03/19 10:20:15;;;;;;;;;;;;;;;16.06;51.16;100531.50;5052781;28;1223;-65
2024/03/19 10:22:41;;;;;;;;;;;;;;;15.90;51.67;100521.63;5041219;28;1227;-63
2024/03/19 10:25:07;;;;;;;;;;;;;;;15.73;52.09;100533.66;5043735;28;1048;-62
2024/03/19 10:27:33;;;;;;;;;;;;;;;15.55;52.51;100535.00;5066030;28;1155;-61
2024/03/19 10:29:58;;;;;;;;;;;;;;;15.87;51.99;100536.72;5048608;28;1164;-59
2024/03/19 10:32:24;;;;;;;;;;;;;;;17.36;48.09;100529.94;5039980;28;1001;-64
2024/03/19 10:34:50;;;;;;;;;;;;;;;17.41;47.79;100527.16;5041846;28;1251;-59
2024/03/19 10:37:17;;;;;;;;;;;;;;;16.42;50.12;100539.69;5040872;28;1984;-61
2024/03/19 10:39:43;;;;;;;;;;;;;;;16.13;50.81;100542.19;5061688;28;1326;-60
2024/03/19 10:42:12;;;;;;;;;;;;;;;15.86;51.50;100537.78;5044453;28;1288;-59
2024/03/19 10:44:38;;;;;;;;;;;;;;;15.69;51.74;100532.56;5039776;28;1274;-59
2024/03/19 10:47:03;;;;;;;;;;;;;;;15.64;52.10;100534.47;5043834;28;1059;-61
2024/03/19 10:49:30;;;;;;;;;;;;;;;17.08;48.69;100534.22;5023043;28;1329;-60
2024/03/19 10:52:05;;;;;;;;;;;;;;;17.91;46.30;100535.34;5054695;28;1191;-63
2024/03/19 10:54:31;;;;;;;;;;;;;;;16.67;49.66;100524.22;5052530;28;1301;-65
2024/03/19 10:56:57;;;;;;;;;;;;;;;16.22;50.75;100534.22;5026277;28;1963;-65
2024/03/19 10:59:22;;;;;;;;;;;;;;;15.96;51.21;100545.19;5036182;28;1302;-64
2024/03/19 11:01:48;;;;;;;;;;;;;;;15.76;51.94;100529.56;5055185;28;1059;-66
2024/03/19 11:04:14;;;;;;;;;;;;;;;15.64;52.14;100535.31;5050046;28;1230;-66
2024/03/19 11:06:40;;;;;;;;;;;;;;;16.10;51.43;100536.44;5045553;28;1219;-66
2024/03/19 11:09:14;;;;;;;;;;;;;;;17.53;47.65;100543.31;5053304;28;1218;-67
2024/03/19 11:11:41;;;;;;;;;;;;;;;17.37;47.63;100547.25;5033200;28;1283;-67
2024/03/19 11:14:06;;;;;;;;;;;;;;;16.56;49.73;100545.41;5055263;28;1428;-66
2024/03/19 11:16:38;;;;;;;;;;;;;;;16.17;50.86;100539.69;5026342;28;1961;-66
2024/03/19 11:19:13;;;;;;;;;;;;;;;15.91;51.50;100543.28;5045756;28;1247;-65
2024/03/19 11:21:39;;;;;;;;;;;;;;;15.76;51.91;100534.22;5027804;28;1052;-65
2024/03/19 11:24:15;;;;;;;;;;;;;;;15.66;52.02;100535.03;5045028;28;1325;-62
2024/03/19 11:26:41;;;;;;;;;;;;;;;16.74;49.81;100540.38;5031163;28;1364;-64
2024/03/19 11:29:08;;;;;;;;;;;;;;;17.76;46.78;100550.00;5027976;28;1084;-64
2024/03/19 11:31:37;;;;;;;;;;;;;;;16.70;49.47;100556.59;5042156;28;1099;-64
2024/03/19 11:34:03;;;;;;;;;;;;;;;16.19;50.97;100552.06;5052377;28;1246;-64
2024/03/19 11:36:28;;;;;;;;;;;;;;;15.98;51.46;100562.22;5062706;28;1964;-65
2024/03/19 11:38:54;;;;;;;;;;;;;;;15.79;52.01;100556.44;5046323;28;1231;-63
2024/03/19 11:41:20;;;;;;;;;;;;;;;15.59;52.29;100564.63;5056908;28;1063;-63
2024/03/19 11:43:46;;;;;;;;;;;;;;;16.01;51.60;100567.16;5060582;28;1098;-64
2024/03/19 11:46:13;;;;;;;;;;;;;;;17.41;48.04;100562.88;5065892;28;1078;-63
2024/03/19 11:48:39;;;;;;;;;;;;;;;17.40;47.76;100569.50;5074769;28;1071;-62
2024/03/19 11:51:04;;;;;;;;;;;;;;;16.50;50.18;100556.66;5066014;28;1195;-63
2024/03/19 11:53:30;;;;;;;;;;;;;;;16.14;51.07;100551.22;5056120;28;1029;-63
2024/03/19 11:55:56;;;;;;;;;;;;;;;15.97;51.40;100559.75;5048343;28;1913;-63
2024/03/19 11:58:24;;;;;;;;;;;;;;;15.78;52.04;100560.28;5048610;28;1107;-62
2024/03/19 12:00:49;;;;;;;;;;;;;;;15.61;52.24;100567.91;5040949;28;1279;-61
2024/03/19 12:03:15;;;;;;;;;;;;;;;15.91;51.90;100567.16;5038292;28;1069;-64
2024/03/19 12:05:48;;;;;;;;;;;;;;;17.38;48.07;100579.94;5025765;28;997;-65
2024/03/19 12:08:16;;;;;;;;;;;;;;;17.27;48.17;100572.88;5049498;28;1074;-62
2024/03/19 12:10:42;;;;;;;;;;;;;;;16.46;50.44;100572.84;5076574;28;1059;-60
2024/03/19 12:13:08;;;;;;;;;;;;;;;16.07;51.14;100571.56;5072950;28;1210;-60
2024/03/19 12:15:33;;;;;;;;;;;;;;;15.87;51.98;100571.53;5044168;28;1906;-60
2024/03/19 12:17:59;;;;;;;;;;;;;;;15.72;52.02;100564.94;5051878;28;1373;-60
2024/03/19 12:20:25;;;;;;;;;;;;;;;15.56;52.53;100572.28;5062805;28;1044;-60
2024/03/19 12:22:51;;;;;;;;;;;;;;;17.07;48.85;100569.13;5050387;28;1194;-60
2024/03/19 12:25:17;;;;;;;;;;;;;;;17.60;47.38;100574.03;5044280;28;1072;-61
2024/03/19 12:27:43;;;;;;;;;;;;;;;16.60;49.96;100578.59;5043753;28;977;-60
2024/03/19 12:30:14;;;;;;;;;;;;;;;16.16;51.10;100587.44;5050424;28;1332;-60
2024/03/19 12:32:59;;;;;;;;;;;;;;;15.87;51.95;100593.47;5044666;28;1267;-59
2024/03/19 12:35:25;;;;;;;;;;;;;;;15.68;52.07;100585.75;5046572;28;1173;-60
2024/03/19 12:37:51;;;;;;;;;;;;;;;15.51;52.59;100588.72;5044625;28;1905;-60
2024/03/19 12:40:18;;;;;;;;;;;;;;;17.09;48.97;100585.31;5043488;28;1308;-59
2024/03/19 12:42:48;;;;;;;;;;;;;;;17.47;47.97;100584.84;5040087;28;1451;-60